Terminal Aerodrome Forecast
Issued by NWS

Home | Current Version | Previous Version | Text Only | Print | Product List | Glossary On
Versions: 1 2 3 4 5 6 7 8 9 10 11 12 13 14 15 16 17 18 19 20
000
FTUS44 KLZK 281100
TAFADF
TAF
KADF 281120Z 2812/2912 VRB05KT P6SM SCT050 SCT120
      TEMPO 2812/2814 3SM BR
     FM281500 36008KT P6SM SCT250
     FM290100 35006KT P6SM SKC=

USA.gov is the U.S. government's official web portal to all federal, state and local government web resources and services.